Date,TemperatureHighF,TemperatureAvgF,TemperatureLowF,DewpointHighF,DewpointAvgF,DewpointLowF,HumidityHigh,HumidityAvg,HumidityLow,PressureMaxIn,PressureMinIn,WindSpeedMaxMPH,WindSpeedAvgMPH,GustSpeedMaxMPH,PrecipitationSumIn
2013-1-1,33.7,21.9,8.4,28.5,16.4,5.1,91,79,68,30.06,29.87,9,4,13,0.00
2013-1-2,25.8,20.8,13.2,20.8,15.5,8.7,90,80,71,30.24,30.02,8,5,13,0.00
2013-1-3,28.4,21.6,13.0,24.9,17.8,10.0,91,85,75,30.23,30.01,8,4,13,0.00
2013-1-4,34.1,30.9,27.5,26.6,23.7,20.2,83,75,61,30.04,29.89,12,9,17,0.00
2013-1-5,34.5,31.7,29.6,27.8,25.3,23.0,83,77,70,30.31,30.05,10,4,14,0.04
2013-1-6,37.2,34.0,29.7,32.2,29.5,25.0,95,84,75,30.08,29.90,6,4,13,0.10
2013-1-7,34.4,29.0,25.4,32.0,24.2,21.1,91,82,73,30.41,30.09,7,4,13,0.00
2013-1-8,41.1,31.8,26.8,26.6,23.2,20.7,82,71,55,30.33,30.18,7,3,13,0.01
2013-1-9,46.6,38.3,29.4,37.0,29.8,21.8,84,72,60,30.35,29.98,19,7,28,0.00
2013-1-10,43.1,36.5,32.0,30.0,28.5,27.0,84,73,57,30.60,30.36,8,2,16,0.00
2013-1-11,45.0,40.9,32.1,41.0,34.0,26.0,89,77,52,30.42,29.90,16,5,23,0.15
2013-1-12,56.9,50.0,43.7,51.0,46.3,41.0,93,87,79,30.01,29.96,11,4,13,0.00
2013-1-13,67.1,56.8,47.7,57.0,52.2,46.0,95,85,71,29.96,29.73,15,3,19,0.00
2013-1-14,54.7,36.1,28.3,52.0,30.0,21.0,93,78,67,30.39,29.73,21,6,29,0.01
2013-1-15,33.6,28.9,25.1,24.0,21.6,19.0,85,75,58,30.42,30.20,6,1,9,0.00
2013-1-16,37.9,32.5,28.8,31.0,26.4,22.0,86,79,59,30.18,29.79,12,3,16,0.00
2013-1-17,35.2,25.4,17.1,30.0,20.5,15.0,91,82,70,30.19,29.86,15,4,21,0.00
2013-1-18,31.6,20.2,13.0,18.0,12.4,8.0,91,73,56,30.46,30.07,16,3,21,0.03
2013-1-19,47.3,40.8,32.0,31.0,24.6,17.0,65,53,45,30.06,29.61,16,6,25,0.01
2013-1-20,47.2,31.1,19.1,36.0,19.3,7.0,85,62,47,30.08,29.46,24,10,41,0.02
2013-1-21,21.0,18.3,13.1,15.0,10.3,0.0,88,71,57,30.07,29.89,10,3,18,0.00
2013-1-22,13.7,9.9,6.2,2.3,-2.0,-5.0,74,59,47,30.22,29.92,15,7,22,0.00
2013-1-23,13.1,9.5,5.4,8.0,2.5,-4.0,83,73,62,30.27,30.14,8,3,12,0.00
2013-1-24,14.6,10.5,6.0,11.0,5.3,1.0,87,80,69,30.56,30.12,17,4,19,0.00
2013-1-25,16.3,11.3,6.4,12.0,6.4,1.0,90,81,64,30.54,30.11,6,2,8,0.00
2013-1-26,23.1,14.4,4.4,13.0,8.9,1.0,91,79,60,30.43,30.12,5,1,9,0.00
2013-1-27,28.1,21.9,18.2,19.0,16.3,13.0,89,79,64,30.59,30.39,7,2,11,0.02
2013-1-28,42.9,34.5,23.0,42.0,31.6,17.0,97,89,73,30.38,29.87,12,3,15,0.24
2013-1-29,54.9,43.4,34.1,53.0,42.1,33.0,98,95,90,30.06,29.75,7,2,12,0.39
2013-1-30,62.8,58.3,54.2,55.0,51.8,49.0,89,79,71,29.74,29.02,22,8,25,0.06
2013-1-31,53.8,30.4,21.0,51.0,23.2,14.0,93,75,57,29.71,29.00,28,12,41,0.16
2013-2-1,21.5,19.1,16.1,16.0,12.3,9.0,89,75,62,30.22,29.71,14,6,21,0.00
2013-2-2,20.3,17.2,13.9,16.0,11.1,7.0,86,77,66,30.22,30.00,10,4,16,0.00
2013-2-3,24.9,19.2,13.8,17.0,13.5,11.0,89,79,56,30.00,29.80,11,2,14,0.00
2013-2-4,22.2,18.8,16.5,15.0,11.5,8.0,82,73,57,29.98,29.88,17,4,21,0.00
2013-2-5,27.3,22.2,16.2,20.0,16.1,12.0,88,77,65,29.98,29.86,12,2,14,0.00
2013-2-6,26.8,23.8,16.2,24.0,16.9,10.0,91,76,50,30.39,29.89,16,5,21,0.00
2013-2-7,32.1,24.4,15.3,23.0,16.5,11.0,83,72,63,30.44,30.10,13,6,19,0.00
2013-2-8,37.4,30.6,18.3,34.0,26.4,17.0,97,85,64,30.10,29.76,10,4,14,0.15
2013-2-9,19.6,16.7,8.6,17.0,14.5,6.0,93,91,87,30.45,30.09,6,2,9,0.00
2013-2-10,37.6,21.4,2.8,29.0,15.9,0.0,90,80,57,30.44,30.00,13,3,18,0.18
2013-2-11,51.4,39.0,33.4,43.0,30.7,23.0,85,72,54,29.98,29.56,19,9,28,0.06
2013-2-12,33.8,32.5,30.4,29.0,26.6,24.0,85,79,69,29.97,29.72,16,7,26,0.00
2013-2-13,39.7,31.8,25.9,26.0,24.7,23.0,89,75,55,29.93,29.72,5,1,14,0.00
2013-2-14,41.5,33.3,25.6,34.0,28.1,23.0,92,82,60,29.93,29.79,7,2,13,0.04
2013-2-15,38.1,33.6,24.3,35.0,24.8,16.0,88,70,56,30.07,29.79,18,7,24,0.01
2013-2-16,29.9,24.6,18.6,21.0,16.1,11.0,91,71,46,30.07,29.93,9,3,13,0.00
2013-2-17,19.5,14.5,10.2,18.0,10.7,4.0,92,84,71,30.22,29.91,16,5,26,0.00
2013-2-18,35.8,20.6,8.8,20.0,12.3,6.0,87,71,52,30.32,29.94,10,3,14,0.05
2013-2-19,43.2,35.0,24.4,37.0,26.2,19.0,90,72,51,29.94,29.55,19,7,28,0.09
2013-2-20,24.5,21.4,18.9,20.0,14.4,11.0,85,74,63,30.09,29.77,21,9,30,0.00
2013-2-21,21.2,18.4,13.9,17.0,13.2,8.0,89,80,74,30.45,30.06,17,7,23,0.00
2013-2-22,34.7,28.0,21.2,28.0,22.7,17.0,88,81,67,30.42,30.04,13,5,20,0.00
2013-2-23,37.9,33.6,30.9,33.0,28.9,25.0,89,83,77,30.03,29.87,12,4,18,0.03
2013-2-24,31.9,30.3,28.6,26.0,24.8,23.0,90,80,74,30.07,29.86,11,4,16,0.00
2013-2-25,36.1,32.0,27.4,28.0,26.7,25.0,90,81,68,30.24,30.08,7,2,10,0.00
2013-2-26,42.7,33.9,24.0,32.0,27.1,22.0,96,78,55,30.25,29.82,17,6,22,0.22
2013-2-27,34.7,33.3,32.4,34.0,32.3,31.0,97,96,92,29.81,29.57,15,4,22,0.54
2013-2-28,35.8,33.7,32.2,33.0,31.9,31.0,97,93,86,29.73,29.55,7,2,11,0.08
2013-3-1,32.2,28.6,24.9,32.0,26.4,21.0,97,91,83,29.94,29.73,10,4,15,0.03
2013-3-2,26.1,23.4,21.2,23.0,20.2,18.0,92,87,81,29.96,29.88,10,4,14,0.00
2013-3-3,23.4,22.2,20.4,22.0,18.9,16.0,93,87,78,29.92,29.87,13,4,16,0.00
2013-3-4,28.6,24.8,20.9,23.0,19.8,17.0,89,81,72,30.06,29.92,16,6,21,0.00
2013-3-5,33.5,26.8,24.0,25.0,21.7,20.0,89,81,68,30.11,29.98,15,4,18,0.01
2013-3-6,40.5,31.7,21.8,33.0,27.4,20.0,92,84,67,30.14,29.96,17,5,20,0.01
2013-3-7,38.2,33.8,29.6,34.0,30.3,27.0,95,87,74,30.28,30.14,6,1,11,0.00
2013-3-8,42.7,34.5,28.6,29.0,26.5,25.0,94,74,54,30.40,30.27,10,2,18,0.01
2013-3-9,51.3,35.6,25.7,33.0,28.7,24.0,95,78,48,30.43,30.24,6,1,10,0.00
2013-3-10,63.9,50.1,31.9,35.0,30.0,25.0,85,49,31,30.24,29.98,11,4,20,0.00
2013-3-11,56.4,52.6,49.1,45.0,33.1,29.0,71,48,41,29.98,29.66,16,6,24,0.00
2013-3-12,54.1,39.9,34.3,48.0,35.0,28.0,93,82,74,29.92,29.66,14,5,24,0.29
2013-3-13,37.8,32.0,23.4,31.0,24.8,17.0,93,75,59,29.95,29.84,16,6,31,0.00
2013-3-14,31.8,25.1,18.3,18.0,13.1,7.0,87,63,37,30.08,29.95,18,9,31,0.00
2013-3-15,36.8,30.4,24.2,31.0,24.7,16.0,92,79,65,30.07,29.75,16,5,23,0.01
2013-3-16,29.7,26.0,20.3,22.0,18.8,17.0,88,74,63,30.00,29.85,11,3,13,0.00
2013-3-17,32.4,24.7,20.2,25.0,18.2,11.0,93,77,54,30.36,29.99,10,2,15,0.01
2013-3-18,34.3,26.3,18.7,31.0,18.7,12.0,92,74,42,30.36,29.75,15,6,22,0.09
2013-3-19,37.3,31.9,24.4,32.0,27.4,21.0,92,83,68,29.84,29.69,21,5,26,0.15
2013-3-20,33.0,26.7,22.3,23.0,19.5,16.0,89,75,52,29.85,29.80,15,6,24,0.00
2013-3-21,29.0,25.0,19.5,25.0,19.0,13.0,92,78,57,29.85,29.73,11,4,18,0.00
2013-3-22,30.3,27.5,24.2,26.0,23.9,21.0,93,86,82,29.94,29.76,17,6,23,0.01
2013-3-23,36.8,32.1,28.6,27.0,24.8,23.0,85,75,59,30.02,29.92,17,6,20,0.00
2013-3-24,39.0,32.0,25.6,28.0,24.0,22.0,91,73,55,30.03,29.74,8,3,15,0.00
2013-3-25,41.4,34.2,29.7,30.0,26.4,24.0,87,74,56,29.74,29.60,10,4,15,0.00
2013-3-26,47.5,37.6,29.9,34.0,29.5,27.0,88,74,52,29.94,29.73,11,2,16,0.00
2013-3-27,44.5,36.0,31.3,35.0,30.9,26.0,95,82,63,30.06,29.93,13,5,22,0.01
2013-3-28,43.3,36.8,32.6,35.0,32.5,31.0,94,85,64,30.21,30.05,13,4,13,0.01
2013-3-29,48.3,40.5,35.8,36.0,31.9,29.0,87,73,49,30.21,30.12,11,3,15,0.00
2013-3-30,51.0,40.3,30.8,32.0,27.2,23.0,81,62,37,30.21,30.05,12,2,14,0.00
2013-3-31,55.9,43.3,31.7,42.0,32.9,25.0,90,69,41,30.05,29.63,9,3,21,0.05
2013-4-1,43.8,35.1,24.7,40.0,28.6,17.0,93,78,52,29.95,29.57,17,7,32,0.03
2013-4-2,32.0,27.4,22.6,26.0,20.6,16.0,92,76,63,30.12,29.95,21,7,28,0.00
2013-4-3,36.0,29.5,25.2,22.0,18.5,14.0,86,65,42,30.40,30.12,15,6,25,0.00
2013-4-4,54.7,38.2,24.9,25.0,20.7,17.0,80,54,25,30.37,29.92,10,2,14,0.00
2013-4-5,43.8,37.5,28.2,29.0,23.2,17.0,72,57,47,30.16,29.88,15,6,21,0.00
2013-4-6,49.0,35.5,22.7,24.0,19.5,16.0,83,56,27,30.34,30.05,11,3,16,0.00
2013-4-7,69.9,55.4,43.2,47.0,34.5,19.0,72,47,32,30.04,29.71,20,9,28,0.00
2013-4-8,59.4,48.0,39.6,50.0,38.2,33.0,89,70,49,30.11,29.76,15,4,19,0.01
2013-4-9,63.9,52.1,44.5,51.0,44.4,41.0,96,77,51,30.10,29.74,12,4,24,0.73
2013-4-10,47.8,43.3,39.3,47.0,42.4,38.0,97,96,95,30.04,29.83,14,3,22,0.84
2013-4-11,39.6,35.0,32.4,38.0,32.7,30.0,97,91,76,30.15,29.97,18,5,22,0.31
2013-4-12,54.3,41.0,34.1,49.0,38.3,33.0,98,90,78,29.96,29.54,21,8,24,0.44
2013-4-13,44.7,40.8,38.0,37.0,34.8,32.0,87,79,64,29.94,29.78,15,6,21,0.00
2013-4-14,48.2,39.8,34.2,33.0,30.4,29.0,87,70,49,30.20,29.94,11,5,16,0.01
2013-4-15,72.2,55.2,36.1,49.0,40.9,28.0,80,61,40,30.17,29.99,13,5,19,0.00
2013-4-16,64.8,57.4,46.4,58.0,50.5,38.0,94,78,66,30.22,29.94,13,6,23,0.09
2013-4-17,56.3,47.6,36.6,38.0,34.3,32.0,83,61,44,30.35,30.22,10,3,16,0.00
2013-4-18,74.7,61.1,42.8,58.0,49.8,33.0,77,67,54,30.24,29.69,23,8,28,0.00
2013-4-19,72.3,58.3,41.4,60.0,49.2,31.0,88,72,61,29.75,29.34,17,9,30,0.19
2013-4-20,41.7,37.2,31.4,33.0,27.8,23.0,88,69,54,30.42,29.73,22,8,32,0.01
2013-4-21,45.0,35.2,26.3,27.0,23.6,18.0,85,64,45,30.69,30.42,8,2,14,0.00
2013-4-22,59.2,44.8,29.0,31.0,26.7,20.0,84,52,28,30.61,30.34,15,4,21,0.00
2013-4-23,65.8,51.8,38.2,40.0,33.8,27.0,72,52,32,30.34,29.95,12,3,17,0.00
2013-4-24,67.2,54.2,38.3,55.0,43.4,34.0,91,68,52,29.99,29.58,18,7,29,0.07
2013-4-25,55.8,44.3,34.7,39.0,32.4,26.0,88,66,35,30.31,30.00,14,4,21,0.03
2013-4-26,56.4,45.2,36.2,38.0,31.9,26.0,91,63,32,30.47,30.31,11,3,17,0.01
2013-4-27,69.2,53.5,36.7,41.0,35.8,31.0,84,55,29,30.44,30.21,7,2,12,0.00
2013-4-28,72.2,57.8,44.3,48.0,40.6,35.0,85,57,26,30.21,30.01,12,4,23,0.01
2013-4-29,63.4,57.1,49.9,52.0,48.4,44.0,86,73,66,30.04,29.96,12,4,17,0.14
2013-4-30,71.1,62.8,55.6,55.0,52.3,51.0,86,70,52,30.20,30.03,13,4,21,0.00
2013-5-1,77.8,65.8,55.4,51.0,45.0,34.0,82,51,25,30.32,30.20,12,3,13,0.00
2013-5-2,78.6,66.8,56.2,44.0,38.0,31.0,51,36,21,30.39,30.23,9,4,13,0.00
2013-5-3,77.7,66.2,53.8,49.0,43.6,40.0,69,45,32,30.28,30.17,13,4,19,0.00
2013-5-4,73.6,63.5,51.4,45.0,41.1,36.0,60,45,31,30.25,30.11,12,4,17,0.00
2013-5-5,75.0,63.3,47.6,47.0,42.1,37.0,78,49,26,30.19,30.05,13,4,21,0.00
2013-5-6,77.2,64.6,51.9,49.0,38.1,29.0,61,40,18,30.14,29.98,9,3,15,0.00
2013-5-7,77.3,66.5,54.6,55.0,50.9,47.0,83,60,34,30.10,29.96,12,3,19,0.00
2013-5-8,68.3,61.4,56.4,60.0,55.0,50.0,97,80,60,30.03,29.90,10,2,17,0.71
2013-5-9,72.1,62.4,56.3,61.0,57.9,55.0,97,86,63,29.94,29.85,10,2,13,0.07
2013-5-10,74.3,61.6,52.4,63.0,57.0,50.0,94,85,63,29.93,29.70,7,1,17,0.23
2013-5-11,60.0,54.0,47.5,58.0,49.6,44.0,95,85,72,29.76,29.64,12,4,23,0.08
2013-5-12,50.6,44.9,37.5,45.0,35.9,29.8,91,72,50,29.92,29.67,21,7,28,0.02
2013-5-13,48.4,40.8,34.1,34.0,31.6,29.0,84,70,55,30.14,29.92,14,5,19,0.00
2013-5-14,58.0,46.8,33.6,40.0,32.8,26.0,91,62,31,30.17,29.95,7,1,12,0.00
2013-5-15,80.6,61.2,47.5,62.0,47.5,38.0,77,62,45,29.95,29.51,18,4,31,0.02
2013-5-16,75.3,64.8,51.4,51.0,44.4,35.0,71,50,28,29.98,29.71,13,4,25,0.00
2013-5-17,65.9,54.8,41.1,44.0,40.5,36.0,93,62,36,30.21,29.99,13,1,14,0.00
2013-5-18,70.4,57.7,43.6,52.0,45.3,40.0,86,65,45,30.25,30.12,12,3,16,0.00
2013-5-19,79.6,67.4,58.1,63.0,58.1,53.0,86,73,56,30.13,29.96,12,3,17,0.00
2013-5-20,86.0,73.5,62.6,66.0,62.6,58.0,87,70,43,30.01,29.82,8,2,11,0.00
2013-5-21,89.5,74.9,63.6,71.0,65.1,60.0,91,73,44,29.87,29.70,8,2,19,0.06
2013-5-22,88.6,75.4,64.5,69.0,64.1,60.0,93,71,41,29.76,29.61,8,2,19,0.00
2013-5-23,74.3,66.5,46.8,65.0,59.7,45.0,94,79,63,29.85,29.67,10,3,21,0.19
2013-5-24,50.4,43.6,39.2,44.0,39.2,37.0,95,85,64,30.19,29.85,11,4,16,0.14
2013-5-25,58.7,49.2,39.2,39.0,36.9,35.0,88,65,43,30.21,30.14,11,4,20,0.00
2013-5-26,62.4,52.2,41.8,39.3,35.9,31.0,82,57,33,30.20,30.12,19,4,19,0.00
2013-5-27,73.0,58.1,41.6,43.0,37.8,34.0,81,51,25,30.26,30.13,6,2,12,0.00
2013-5-28,63.6,57.0,49.9,61.0,51.8,37.7,97,83,49,30.15,29.92,10,1,12,0.40
2013-5-29,81.1,70.9,62.4,69.0,63.9,61.0,97,80,54,29.99,29.88,14,3,22,0.71
2013-5-30,88.0,76.9,66.2,69.6,64.7,61.0,89,68,42,30.08,29.99,7,1,13,0.01
2013-5-31,90.1,78.9,67.0,71.0,65.4,60.0,84,65,39,30.04,29.88,5,1,15,0.00
2013-6-1,86.4,76.4,66.9,70.0,66.4,62.0,94,72,53,29.93,29.73,8,2,21,0.14
2013-6-2,76.3,69.6,59.1,68.0,63.0,53.0,97,80,57,29.85,29.66,17,4,24,0.45
2013-6-3,63.6,55.6,49.8,52.4,46.7,44.0,85,73,54,30.01,29.86,10,3,17,0.00
2013-6-4,68.1,57.1,47.3,46.0,41.5,35.0,86,60,31,30.15,30.01,8,2,13,0.00
2013-6-5,69.8,58.2,47.5,50.0,44.8,40.0,87,63,43,30.21,30.07,11,3,15,0.00
2013-6-6,58.4,55.3,52.4,57.0,52.2,43.7,97,89,68,30.07,29.83,9,4,13,1.87
2013-6-7,61.4,58.3,55.7,59.0,57.4,55.0,98,96,91,29.84,29.77,3,1,6,0.10
2013-6-8,63.4,58.8,55.2,59.0,56.4,53.7,99,92,82,30.07,29.79,10,2,11,0.03
2013-6-9,76.5,64.7,54.1,60.0,55.1,51.6,91,73,50,30.18,30.06,8,1,11,0.00
2013-6-10,69.8,65.0,60.0,65.0,61.2,54.8,96,88,73,30.09,29.69,8,2,15,0.21
2013-6-11,67.8,65.0,60.4,65.0,61.4,55.0,96,88,76,29.82,29.61,10,3,17,0.30
2013-6-12,76.6,65.4,53.8,60.0,55.4,52.0,96,72,47,29.91,29.74,6,1,9,0.00
2013-6-13,66.3,60.9,56.2,60.0,58.2,55.0,97,91,76,29.76,29.46,13,3,21,1.30
2013-6-14,74.4,63.0,53.8,61.0,57.0,53.0,98,82,59,29.96,29.76,11,2,14,0.00
2013-6-15,73.9,64.5,53.9,57.0,53.2,47.0,90,69,44,30.03,29.93,10,2,14,0.00
2013-6-16,75.4,67.2,61.7,67.0,60.6,53.8,94,80,67,29.93,29.68,10,3,19,0.05
2013-6-17,78.5,69.3,61.2,65.0,60.8,57.0,94,76,50,29.90,29.79,14,2,19,0.01
2013-6-18,68.8,61.6,53.9,59.3,53.3,46.0,95,76,45,30.00,29.85,8,2,13,0.01
2013-6-19,69.2,59.1,48.7,50.0,46.4,42.0,95,66,43,30.18,30.00,8,2,13,0.00
2013-6-20,78.4,62.1,46.4,54.0,47.8,44.0,95,63,37,30.24,30.18,8,1,12,0.00
2013-6-21,84.2,68.0,50.9,61.2,54.8,48.0,91,66,39,30.26,30.14,8,1,11,0.00
2013-6-22,87.0,76.6,61.2,71.0,65.3,58.0,90,70,52,30.15,29.97,6,1,15,0.00
2013-6-23,90.4,79.6,71.6,74.2,68.8,65.5,83,70,56,30.03,29.95,9,2,18,0.00
2013-6-24,87.8,78.0,72.0,72.0,66.8,62.0,82,69,48,30.00,29.90,12,3,18,0.00
2013-6-25,83.5,76.0,70.7,71.0,66.5,63.0,84,73,60,29.91,29.76,13,3,19,0.00
2013-6-26,84.5,74.9,67.6,70.0,66.8,64.0,92,77,54,29.80,29.75,8,2,14,0.03
2013-6-27,80.3,72.0,65.6,72.0,67.3,63.8,95,86,69,29.77,29.59,12,1,15,0.25
2013-6-28,67.0,65.0,61.5,66.0,63.9,60.0,97,96,93,29.58,29.47,5,1,11,0.40
2013-6-29,77.6,67.1,61.0,67.0,63.4,60.0,98,89,67,29.66,29.48,6,2,10,0.10
2013-6-30,80.4,69.3,60.2,67.0,63.1,59.0,97,82,60,29.90,29.66,10,2,16,0.00
2013-7-1,66.6,64.1,60.4,64.0,62.2,59.0,97,93,87,30.03,29.89,7,3,13,0.41
2013-7-2,82.4,66.9,59.8,73.0,64.2,58.3,98,91,71,30.07,29.99,10,1,11,0.25
2013-7-3,87.4,73.5,66.0,75.0,69.2,65.0,99,87,63,30.13,30.06,9,2,15,0.47
2013-7-4,85.8,75.8,69.6,73.8,70.9,68.0,97,85,62,30.14,30.06,6,1,10,0.08
2013-7-5,84.7,76.6,69.4,75.0,70.9,68.0,97,83,65,30.11,30.01,7,2,13,0.14
2013-7-6,87.4,76.1,68.8,72.0,68.5,63.7,94,79,53,30.12,29.99,5,1,8,0.00
2013-7-7,83.1,75.9,70.9,73.0,69.9,65.0,97,82,65,30.02,29.90,9,2,13,0.43
2013-7-8,85.0,74.7,69.9,72.0,68.2,65.0,90,81,58,30.01,29.94,6,1,11,0.00
2013-7-9,81.1,74.8,69.7,74.0,70.2,68.0,94,85,73,30.01,29.87,7,1,12,0.03
2013-7-10,86.9,77.1,70.5,74.0,70.6,63.0,95,81,64,29.87,29.68,13,3,27,0.00
2013-7-11,78.7,70.0,62.1,66.0,60.7,58.0,88,73,54,29.99,29.79,8,2,12,0.00
2013-7-12,76.2,67.0,60.1,65.0,61.0,59.0,96,82,58,30.16,29.99,10,1,11,0.00
2013-7-13,79.7,70.6,60.2,71.0,65.7,59.0,97,85,69,30.21,30.14,6,1,10,0.00
2013-7-14,90.9,77.7,65.9,75.0,70.2,65.0,97,79,57,30.28,30.20,6,1,9,0.00
2013-7-15,90.5,79.3,72.2,76.0,71.5,66.0,93,78,54,30.26,30.19,6,1,9,0.00
2013-7-16,92.5,79.5,68.7,73.0,69.3,66.0,93,73,48,30.26,30.17,5,1,10,0.00
2013-7-17,92.3,81.6,71.4,79.0,72.9,67.7,90,76,53,30.19,30.04,8,2,14,0.00
2013-7-18,90.9,82.3,74.4,79.0,74.5,71.0,93,78,61,30.07,29.91,8,1,12,0.00
2013-7-19,91.7,82.2,68.5,76.0,71.5,66.0,93,71,50,29.91,29.68,18,4,24,0.47
2013-7-20,80.2,70.5,63.1,70.0,66.8,60.1,96,88,60,29.86,29.66,8,1,12,0.39
2013-7-21,78.2,69.7,63.2,65.0,62.2,60.0,95,78,57,29.98,29.86,6,2,11,0.00
2013-7-22,80.8,70.0,60.2,69.0,64.0,58.8,95,82,60,29.97,29.76,7,2,10,0.01
2013-7-23,83.4,72.6,65.8,70.0,66.3,59.5,97,82,54,29.76,29.59,9,2,16,0.06
2013-7-24,68.4,62.7,54.1,61.0,52.7,49.0,87,71,54,30.03,29.68,12,3,15,0.00
2013-7-25,73.4,61.7,49.4,57.0,51.9,46.0,96,73,41,30.12,30.03,10,2,15,0.00
2013-7-26,78.5,63.3,50.2,61.0,54.3,48.8,96,75,44,30.11,29.99,6,1,8,0.00
2013-7-27,78.0,67.8,57.9,66.0,62.0,56.0,95,83,62,29.99,29.80,10,1,13,0.08
2013-7-28,75.5,67.4,59.2,66.0,62.8,56.0,96,85,63,29.96,29.79,8,1,9,0.13
2013-7-29,71.1,62.5,56.5,59.8,56.4,54.0,92,81,59,30.12,29.96,6,2,14,0.03
2013-7-30,75.1,66.5,57.8,62.0,58.1,55.0,92,75,57,30.19,30.11,6,1,11,0.00
2013-7-31,79.9,68.0,55.2,65.1,59.4,54.0,96,76,50,30.14,29.92,6,1,8,0.00
2013-8-1,76.8,67.9,63.3,68.1,63.2,60.0,97,85,65,29.91,29.75,10,2,16,0.25
2013-8-2,77.0,67.4,59.3,65.0,60.2,55.8,96,79,52,29.88,29.80,10,1,17,0.35
2013-8-3,76.3,67.6,60.6,61.0,58.8,53.0,95,75,46,29.90,29.79,9,2,14,0.00
2013-8-4,72.8,64.3,56.3,59.4,55.1,51.0,89,73,53,30.04,29.91,12,3,17,0.00
2013-8-5,76.1,64.2,51.0,58.0,52.8,49.0,93,69,41,30.11,30.00,4,1,10,0.00
2013-8-6,78.8,66.5,53.5,61.0,55.6,51.0,95,71,43,30.04,29.96,7,1,10,0.00
2013-8-7,79.9,71.9,65.2,67.1,63.6,59.5,84,75,65,29.97,29.84,9,4,22,0.00
2013-8-8,85.3,72.8,66.0,74.0,68.2,63.8,97,86,64,29.93,29.88,11,2,14,0.99
2013-8-9,77.5,70.0,65.4,70.0,66.8,60.0,98,90,65,29.91,29.82,7,1,10,0.46
2013-8-10,74.0,66.3,57.8,61.0,57.1,52.0,93,74,50,30.07,29.91,9,2,17,0.00
2013-8-11,76.8,65.1,52.9,59.1,55.8,51.9,97,74,48,30.12,30.02,6,1,9,0.00
2013-8-12,76.2,68.1,60.0,66.0,60.7,56.5,90,78,60,30.04,29.84,4,1,10,0.00
2013-8-13,72.5,66.1,57.7,67.3,60.4,48.6,96,82,61,29.85,29.72,11,3,16,0.44
2013-8-14,68.6,59.2,52.7,55.0,50.9,48.0,94,75,51,30.07,29.83,12,4,17,0.01
2013-8-15,73.1,61.6,51.7,56.0,51.7,48.0,89,72,47,30.13,30.06,10,2,17,0.00
2013-8-16,78.0,64.6,52.8,58.0,54.9,50.0,92,73,45,30.19,30.10,6,1,10,0.00
2013-8-17,78.6,65.9,52.8,63.0,56.6,52.0,96,75,44,30.28,30.19,6,1,7,0.00
2013-8-18,79.3,67.7,57.1,63.0,59.0,56.0,95,76,47,30.23,30.08,4,1,8,0.00
2013-8-19,82.3,70.8,60.4,65.0,61.2,58.0,92,74,46,30.10,30.00,4,1,8,0.00
2013-8-20,83.1,70.5,60.2,66.0,61.2,57.0,90,74,49,30.11,30.04,8,1,11,0.00
2013-8-21,85.4,72.7,61.1,69.0,63.5,58.0,91,74,50,30.14,29.99,6,1,9,0.00
2013-8-22,83.1,72.8,65.4,72.0,66.8,61.4,93,82,65,30.01,29.86,9,2,18,0.30
2013-8-23,76.8,66.2,56.2,62.0,56.8,52.0,95,74,51,30.18,29.96,6,2,12,0.00
2013-8-24,76.9,63.1,51.3,60.0,53.8,50.0,97,75,45,30.34,30.19,7,1,8,0.01
2013-8-25,81.8,66.0,52.6,64.0,56.5,51.0,96,74,39,30.33,30.11,7,1,13,0.00
2013-8-26,79.4,70.1,65.2,71.0,65.3,60.0,95,85,72,30.15,29.89,9,2,14,0.48
2013-8-27,84.2,74.1,67.4,73.1,69.8,66.0,96,87,69,29.92,29.84,6,1,8,0.01
2013-8-28,82.7,73.7,67.4,73.1,70.0,66.0,97,89,70,29.92,29.82,11,1,13,0.29
2013-8-29,85.6,73.3,64.2,73.0,67.1,63.6,99,83,55,30.02,29.92,6,1,9,0.01
2013-8-30,84.4,73.0,62.4,72.0,67.3,61.0,97,83,59,29.98,29.73,5,1,7,0.01
2013-8-31,83.8,75.1,69.5,73.0,69.6,67.0,93,83,67,29.82,29.69,7,2,14,0.00
2013-9-1,82.6,72.6,67.1,72.0,68.7,66.0,97,88,67,29.81,29.72,8,2,11,0.42
2013-9-2,81.5,71.3,61.8,73.0,67.6,57.0,97,88,67,29.76,29.64,9,2,17,0.20
2013-9-3,66.0,62.8,59.7,59.0,57.5,56.0,91,83,72,29.93,29.75,8,3,17,0.00
2013-9-4,76.3,66.4,55.9,63.0,57.2,53.0,93,74,45,29.98,29.92,11,3,19,0.00
2013-9-5,66.8,58.9,48.3,62.0,50.3,41.0,94,75,47,30.21,29.94,9,2,16,0.03
2013-9-6,70.2,56.3,43.1,55.0,46.7,40.8,92,73,46,30.29,30.09,6,1,10,0.00
2013-9-7,66.8,59.8,52.7,60.0,53.5,47.8,91,80,66,30.09,29.85,9,1,12,0.01
2013-9-8,67.2,61.6,49.2,63.0,52.1,44.0,96,73,46,30.10,29.84,12,2,15,0.02
2013-9-9,76.6,60.3,44.2,65.0,52.7,42.8,95,78,54,30.15,29.95,14,1,14,0.00
2013-9-10,89.9,77.5,66.3,78.0,70.5,61.0,95,79,64,29.97,29.90,9,3,17,0.60
2013-9-11,91.4,81.0,73.2,77.0,72.4,66.0,89,76,56,30.00,29.86,9,3,13,0.00
2013-9-12,74.0,68.9,59.4,69.0,65.2,57.0,95,88,79,29.90,29.69,12,2,15,0.14
2013-9-13,59.3,54.8,49.8,57.0,52.4,48.0,96,91,82,30.00,29.73,10,2,14,0.20
2013-9-14,62.1,52.0,47.8,49.0,44.9,40.0,96,78,49,30.12,30.00,6,2,12,0.00
2013-9-15,67.3,56.2,44.9,54.0,48.2,41.6,91,75,59,30.16,30.04,6,1,15,0.01
2013-9-16,56.9,50.8,43.5,54.4,48.2,41.8,96,91,75,30.37,30.06,7,1,14,0.04
2013-9-17,64.0,51.0,36.5,47.4,42.1,35.8,98,75,47,30.50,30.30,8,2,11,0.01
2013-9-18,76.3,56.8,41.4,53.0,45.3,39.0,93,70,31,30.30,30.09,6,1,9,0.00
2013-9-19,77.8,61.4,50.9,60.0,52.5,46.5,92,74,51,30.12,30.00,7,1,10,0.00
2013-9-20,82.3,68.9,56.9,66.0,60.6,54.8,93,76,54,30.00,29.75,9,2,19,0.00
2013-9-21,70.9,63.5,53.6,64.0,59.6,51.0,97,88,70,29.75,29.60,10,3,20,0.80
2013-9-22,55.5,51.6,49.0,51.0,45.8,42.0,92,81,67,30.01,29.71,10,3,15,0.00
2013-9-23,60.6,51.7,44.3,45.1,43.4,41.0,90,75,52,30.14,30.01,8,2,12,0.00
2013-9-24,67.3,51.8,40.2,50.1,43.9,38.0,95,77,45,30.15,30.00,8,1,9,0.00
2013-9-25,70.7,53.3,41.3,54.0,46.2,40.0,96,79,47,30.01,29.94,6,1,8,0.01
2013-9-26,69.8,55.0,42.1,57.0,49.4,41.0,98,83,58,30.14,29.99,10,1,12,0.01
2013-9-27,69.8,55.0,44.9,56.7,50.6,44.0,98,86,61,30.26,30.15,8,1,10,0.00
2013-9-28,73.9,59.8,43.6,60.0,52.0,42.9,98,78,51,30.30,30.16,8,1,10,0.01
2013-9-29,75.3,61.6,48.4,57.0,51.9,46.0,94,72,47,30.17,29.98,8,2,16,0.00
2013-9-30,78.9,63.5,55.7,61.1,55.7,50.6,91,76,51,30.00,29.91,4,1,10,0.00
2013-10-1,75.2,64.8,56.6,61.0,57.8,54.0,96,80,51,30.01,29.89,9,1,11,0.00
2013-10-2,75.3,66.7,58.2,64.7,59.9,55.0,90,79,61,30.07,29.89,9,2,17,0.00
2013-10-3,73.4,60.8,48.3,55.1,51.0,45.0,97,74,36,30.12,30.00,3,1,7,0.01
2013-10-4,73.2,64.2,58.5,68.4,62.5,55.0,98,94,84,30.05,29.97,5,1,11,0.30
2013-10-5,62.8,60.0,58.4,61.0,58.6,56.9,98,95,91,30.08,30.02,6,1,10,0.19
2013-10-6,83.2,68.6,58.0,72.0,64.1,57.0,99,87,63,30.01,29.71,16,2,21,0.39
2013-10-7,73.9,61.8,49.9,66.0,55.2,45.0,96,79,59,30.02,29.60,13,4,26,0.48
2013-10-8,66.0,52.9,45.3,49.0,45.1,43.0,95,77,47,30.35,30.03,7,1,10,0.00
2013-10-9,68.4,52.4,39.2,51.0,44.5,38.0,98,77,42,30.41,30.28,5,1,8,0.01
2013-10-10,65.9,52.0,40.4,51.0,44.8,39.0,95,78,47,30.28,30.15,9,1,12,0.00
2013-10-11,70.4,54.2,45.2,55.0,48.0,44.0,95,82,44,30.16,30.10,5,1,9,0.00
2013-10-12,75.7,57.3,42.6,56.0,45.6,40.0,97,70,30,30.19,30.12,10,2,12,0.01
2013-10-13,67.7,61.2,54.6,61.0,54.1,42.0,96,78,54,30.25,30.18,7,2,16,0.12
2013-10-14,64.4,56.2,47.6,58.0,52.8,45.0,98,89,66,30.32,30.24,7,1,13,0.22
2013-10-15,66.3,55.3,42.3,58.0,51.2,42.0,98,87,69,30.27,29.95,7,1,12,0.00
2013-10-16,65.2,61.2,56.6,58.0,54.3,49.0,93,78,64,29.95,29.75,15,4,17,0.22
2013-10-17,63.2,55.4,49.4,53.0,50.4,47.0,97,84,63,29.87,29.65,7,2,13,0.44
2013-10-18,58.2,52.0,48.9,51.0,45.2,40.0,97,79,54,29.90,29.71,12,4,23,0.09
2013-10-19,60.8,53.3,43.7,47.0,43.5,39.0,89,70,55,29.89,29.62,12,4,18,0.04
2013-10-20,50.7,45.5,39.8,44.0,41.0,37.0,93,84,73,29.99,29.75,7,2,14,0.00
2013-10-21,65.5,55.5,44.7,49.0,40.3,38.0,90,59,37,29.98,29.77,16,4,19,0.00
2013-10-22,52.2,45.8,40.5,48.0,37.7,32.0,94,74,54,29.84,29.72,16,4,22,0.13
2013-10-23,44.6,39.8,34.9,39.0,35.8,32.0,92,86,71,29.82,29.69,6,2,13,0.01
2013-10-24,48.5,39.2,33.3,36.0,32.4,29.0,91,78,47,30.02,29.80,14,4,27,0.02
2013-10-25,48.8,40.3,34.6,39.0,36.2,33.0,96,85,62,30.19,30.02,10,2,19,0.05
2013-10-26,46.1,42.3,38.7,37.0,32.4,29.0,91,69,55,30.14,29.80,19,5,22,0.02
2013-10-27,47.9,41.8,36.5,37.0,35.3,32.0,91,78,60,30.07,29.82,13,3,15,0.00
2013-10-28,50.8,41.6,30.1,40.1,32.4,25.0,84,71,44,30.39,30.04,7,2,14,0.00
2013-10-29,48.6,36.9,27.2,33.0,28.0,23.8,89,72,45,30.48,30.31,7,1,9,0.00
2013-10-30,61.3,44.8,37.1,43.0,37.5,32.8,93,77,47,30.30,30.10,6,1,8,0.00
2013-10-31,66.3,54.8,40.7,59.2,50.9,37.0,97,87,77,30.10,29.38,17,4,21,0.54
2013-11-1,63.2,56.2,48.3,59.0,48.9,42.0,92,77,59,29.66,29.20,24,8,37,0.34
2013-11-2,49.7,45.6,36.8,46.3,43.3,35.0,95,92,84,29.99,29.59,6,2,14,0.34
2013-11-3,38.9,33.6,26.9,35.0,26.8,23.0,92,77,57,30.55,29.99,11,2,13,0.01
2013-11-4,40.2,32.8,23.1,30.0,23.1,20.0,94,70,46,30.68,30.46,10,2,15,0.00
2013-11-5,55.8,46.2,37.2,37.1,29.9,20.0,64,53,47,30.49,30.33,10,5,20,0.00
2013-11-6,65.9,55.1,47.0,55.0,44.8,36.0,87,69,57,30.33,29.79,12,5,19,0.02
2013-11-7,57.8,43.9,37.3,55.0,38.4,31.0,94,81,67,29.99,29.77,14,5,19,0.29
2013-11-8,41.1,37.3,32.8,33.0,30.0,27.9,87,75,62,30.24,29.95,15,4,21,0.00
2013-11-9,49.7,41.4,35.5,42.0,31.9,29.7,85,70,54,30.23,29.79,10,3,17,0.00
2013-11-10,49.7,43.5,38.6,43.0,35.6,31.0,90,74,64,30.16,29.78,23,7,33,0.08
2013-11-11,45.4,37.2,28.5,36.1,31.5,26.8,95,81,58,30.17,29.92,15,4,19,0.17
2013-11-12,30.2,27.3,23.8,27.2,22.5,20.0,95,82,70,30.41,30.12,12,5,17,0.01
2013-11-13,37.4,29.5,22.0,27.0,22.2,18.0,88,75,54,30.45,30.11,12,4,18,0.00
2013-11-14,51.6,41.4,33.8,27.0,20.0,15.0,62,44,26,30.13,30.01,16,6,21,0.00
2013-11-15,51.9,45.9,41.1,28.1,23.8,20.0,45,42,36,30.12,30.05,12,4,17,0.00
2013-11-16,60.9,50.6,37.5,43.0,36.3,26.0,76,59,44,30.25,30.03,10,3,15,0.00
2013-11-17,61.1,56.1,51.6,54.0,49.7,43.0,90,79,69,30.03,29.36,16,7,26,0.26
2013-11-18,56.9,46.1,36.0,49.0,36.9,27.0,88,71,61,29.90,29.35,19,10,37,0.03
2013-11-19,37.1,33.2,25.6,30.0,25.0,22.0,88,72,59,30.46,29.90,15,5,26,0.00
2013-11-20,37.8,29.0,21.3,25.8,22.4,19.0,92,77,57,30.61,30.46,12,3,18,0.00
2013-11-21,43.8,38.4,26.8,37.0,26.6,15.0,90,64,45,30.48,30.26,13,4,21,0.04
2013-11-22,48.1,42.1,32.5,46.0,39.9,28.0,95,92,80,30.26,29.98,21,4,30,0.20
2013-11-23,35.7,30.3,23.9,29.0,24.9,20.0,92,81,62,30.20,30.01,15,7,25,0.01
2013-11-24,23.3,18.0,13.8,16.0,12.6,9.8,90,80,63,30.44,30.19,21,7,26,0.00
2013-11-25,33.4,26.7,16.4,24.0,15.0,11.0,84,64,40,30.42,30.12,12,4,20,0.00
2013-11-26,35.7,32.9,31.7,31.3,28.1,23.0,97,83,71,30.16,29.80,8,2,15,0.01
2013-11-27,32.5,29.2,22.2,31.2,27.0,18.0,97,92,82,29.90,29.64,18,4,21,0.01
2013-11-28,27.6,21.2,15.3,20.0,15.5,11.0,92,79,61,30.45,29.92,17,3,20,0.02
2013-11-29,30.0,20.6,6.9,21.0,15.5,4.0,94,81,58,30.77,30.45,5,0,7,0.20
2013-11-30,32.1,22.0,4.0,23.3,15.7,1.0,93,78,61,30.76,30.23,10,3,17,0.00
2013-12-1,38.0,34.4,30.8,33.0,28.5,23.0,92,79,70,30.23,29.97,8,3,14,0.09
2013-12-2,40.7,36.6,32.2,34.0,32.3,30.0,93,84,75,29.97,29.86,4,0,5,0.00
2013-12-3,40.6,33.0,29.6,31.0,28.9,27.0,95,85,66,30.01,29.91,8,1,10,0.00
2013-12-4,48.6,38.4,31.7,41.0,34.9,28.0,95,87,73,30.04,29.90,5,1,7,0.03
2013-12-5,61.6,51.3,40.3,55.0,45.9,37.0,87,81,68,29.99,29.74,13,6,24,0.02
2013-12-6,39.3,33.2,29.1,36.0,29.0,25.0,94,85,75,30.26,30.00,9,3,12,0.19
2013-12-7,30.5,26.9,22.4,26.0,19.3,14.4,89,73,60,30.58,30.25,10,4,21,0.00
2013-12-8,27.7,23.2,18.6,22.0,15.4,12.0,90,73,55,30.60,30.23,16,3,18,0.00
2013-12-9,40.3,34.2,26.7,36.0,29.0,22.0,90,81,73,30.22,29.86,20,6,24,0.05
2013-12-10,32.7,24.7,19.4,25.0,17.4,9.0,93,74,64,30.07,29.92,13,6,23,0.00
2013-12-11,23.5,20.3,12.8,20.2,14.3,6.9,90,78,62,30.30,30.07,11,4,20,0.00
2013-12-12,17.9,13.5,7.2,15.0,8.2,3.0,90,79,69,30.36,30.09,12,4,17,0.00
2013-12-13,25.0,18.7,12.9,19.0,13.7,5.0,90,81,72,30.41,30.06,14,5,24,0.00
2013-12-14,24.2,13.2,7.7,23.0,10.3,4.0,95,88,78,30.46,29.77,16,9,22,0.00
2013-12-15,26.3,23.0,18.1,25.1,20.4,8.9,95,90,66,29.87,29.63,13,4,21,0.00
2013-12-16,20.3,13.7,-1.2,13.0,8.3,-4.0,90,79,67,30.21,29.88,21,4,24,0.00
2013-12-17,29.3,16.1,-3.1,25.0,12.6,-7.0,94,86,79,30.18,29.94,12,2,20,0.01
2013-12-18,30.3,27.2,24.1,26.0,22.5,19.0,91,82,71,30.08,29.94,16,4,19,0.00
2013-12-19,41.4,34.7,26.7,33.0,26.5,18.0,88,72,62,30.05,29.91,15,3,22,0.15
2013-12-20,49.2,42.7,34.5,47.0,39.4,32.0,95,88,74,30.00,29.77,7,3,17,0.05
2013-12-21,55.5,45.2,31.9,52.3,43.4,31.0,97,93,83,29.87,29.72,13,4,17,0.81
2013-12-22,44.7,36.1,31.4,44.0,34.9,30.0,98,95,89,29.98,29.59,14,3,20,0.21
2013-12-23,40.5,35.2,24.9,38.0,30.7,20.0,92,83,69,30.26,29.95,17,5,24,0.01
2013-12-24,25.2,19.6,11.8,23.0,16.2,8.0,92,86,80,30.51,30.21,12,3,17,0.02
2013-12-25,25.2,13.7,2.7,16.0,8.3,0.0,90,79,63,30.56,30.25,8,2,11,0.00
2013-12-26,32.3,27.4,23.3,28.0,21.2,15.9,92,77,68,30.30,30.07,11,4,18,0.01
2013-12-27,33.6,28.5,22.3,29.0,23.6,15.9,88,82,74,30.30,30.10,10,3,17,0.01
2013-12-28,44.7,39.8,33.7,35.0,31.6,27.6,87,73,64,30.10,29.95,12,5,19,0.00
2013-12-29,45.4,41.0,30.1,39.0,33.4,28.0,94,75,56,29.93,29.62,15,4,22,0.23
2013-12-30,29.7,19.2,14.4,28.0,15.0,9.0,93,84,77,30.23,29.75,13,6,23,0.01
2013-12-31,23.6,17.8,14.0,18.3,10.7,5.0,86,74,65,30.27,29.99,18,6,29,0.00
2014-1-1,20.4,16.9,13.6,14.4,10.0,7.0,89,75,60,30.43,30.26,13,3,20,0.00
2014-1-2,14.0,11.0,4.4,12.0,8.5,1.6,91,89,88,30.32,30.00,14,6,22,0.00